LFCR/RDZ METAR and TAF weather

Enter ICAO airport designator
Station Type Date Time Source
LFCR METAR 2020/06/02 19:00 UTC NOAA

LFCR 021900Z AUTO 26003KT CAVOK 21/12 Q1014 TEMPO SCT040TCU


Station Type Date Time Source
LFCR Decoded METAR 2020/06/02 19:00 UTC NOAA

Rodez, France (LFCR) 44-24N 002-29E 580M
Jun 02, 2020 - 03:00 PM EDT / 2020.06.02 1900 UTC
Wind: from the W (260 degrees) at 3 MPH (3 KT):0
Visibility: greater than 7 mile(s):0
Weather: Towering cumulus clouds observed
Temperature: 69 F (21 C)
Dew Point: 53 F (12 C)
Relative Humidity: 56%
Pressure (altimeter): 29.94 in. Hg (1014 hPa)
ob: LFCR 021900Z AUTO 26003KT CAVOK 21/12 Q1014 TEMPO SCT040TCU
cycle: 19

Station Type Date Time Source
LFCR TAF 2020/06/02 18:47 UTC NOAA

TAF LFCR 021700Z 0218/0318 VRB03KT CAVOK PROB40
TEMPO 0218/0220 SCT040TCU
BECMG 0310/0312 25008KT
BECMG 0316/0318 SCT030CB BKN040

Example: see airport list